Time;durP1;ratioP1;P1;durP2;ratioP2;P2;SDS_P1;SDS_P2;PMS_P1;PMS_P2;Temp;Humidity;BMP_temperature;BMP_pressure;BME280_temperature;BME280_humidity;BME280_pressure;Samples;Min_cycle;Max_cycle;Signal;HPM_P1;HPM_P2
2023/03/13 00:00:59;;;;;;;28.13;7.65;;;7.70;99.90;;;;;;5049308;28;20060;-38
2023/03/13 00:03:26;;;;;;;23.67;7.55;;;7.70;99.90;;;;;;5044436;28;20380;-38
2023/03/13 00:05:58;;;;;;;40.30;7.57;;;7.80;99.90;;;;;;5045355;28;20033;-38
2023/03/13 00:08:29;;;;;;;33.30;6.25;;;7.70;99.90;;;;;;5048856;28;20025;-38
2023/03/13 00:10:55;;;;;;;35.92;7.07;;;7.90;99.90;;;;;;5048827;28;20048;-38
2023/03/13 00:13:21;;;;;;;34.22;8.85;;;7.90;99.90;;;;;;5038837;28;20491;-38
2023/03/13 00:15:46;;;;;;;24.08;6.97;;;7.90;99.90;;;;;;5048219;28;20033;-38
2023/03/13 00:18:12;;;;;;;34.90;7.00;;;7.90;99.90;;;;;;5048020;28;20024;-38
2023/03/13 00:20:38;;;;;;;34.65;6.88;;;7.90;99.90;;;;;;5048542;28;20023;-38
2023/03/13 00:23:04;;;;;;;34.78;8.73;;;7.90;99.90;;;;;;5047377;28;20490;-38
2023/03/13 00:25:29;;;;;;;34.38;7.35;;;7.90;99.90;;;;;;5048004;28;20391;-38
2023/03/13 00:27:55;;;;;;;27.77;8.10;;;8.00;99.90;;;;;;5045701;28;20505;-38
2023/03/13 00:30:20;;;;;;;26.00;6.38;;;8.00;99.90;;;;;;5048663;28;20017;-38
2023/03/13 00:32:47;;;;;;;33.60;7.53;;;8.00;99.90;;;;;;5048423;28;20414;-38
2023/03/13 00:35:13;;;;;;;27.58;5.82;;;7.90;99.90;;;;;;5047280;28;20017;-38
2023/03/13 00:37:39;;;;;;;31.95;6.85;;;7.90;99.90;;;;;;5048254;28;20031;-38
2023/03/13 00:40:06;;;;;;;32.42;8.45;;;8.00;99.90;;;;;;5048464;28;20115;-38
2023/03/13 00:42:32;;;;;;;33.60;7.50;;;8.00;99.90;;;;;;5047051;28;20091;-38
2023/03/13 00:44:57;;;;;;;33.20;7.45;;;8.10;99.90;;;;;;5047195;28;20055;-38
2023/03/13 00:47:23;;;;;;;23.27;6.70;;;8.00;99.90;;;;;;5047324;28;20037;-38
2023/03/13 00:49:49;;;;;;;32.00;7.95;;;8.00;99.90;;;;;;5045310;28;20413;-38
2023/03/13 00:52:15;;;;;;;19.75;5.80;;;8.00;99.90;;;;;;5047873;28;20094;-38
2023/03/13 00:54:40;;;;;;;20.70;6.95;;;8.10;99.90;;;;;;5047770;28;20017;-38
2023/03/13 00:57:06;;;;;;;31.08;5.97;;;8.10;99.90;;;;;;5047318;28;20035;-38
2023/03/13 00:59:31;;;;;;;22.08;7.25;;;8.10;99.90;;;;;;5048147;28;20028;-38
2023/03/13 01:01:57;;;;;;;27.70;6.80;;;8.10;99.90;;;;;;5048123;28;20104;-38
2023/03/13 01:04:22;;;;;;;22.70;6.65;;;8.10;99.90;;;;;;5047883;28;20021;-38
2023/03/13 01:06:48;;;;;;;27.98;7.03;;;8.10;99.90;;;;;;5047901;28;20024;-38
2023/03/13 01:09:14;;;;;;;34.22;7.50;;;8.20;99.90;;;;;;5047187;28;20013;-38
2023/03/13 01:11:42;;;;;;;29.55;6.72;;;8.20;99.90;;;;;;5048105;28;20070;-38
2023/03/13 01:14:16;;;;;;;23.88;6.90;;;8.30;99.90;;;;;;5047956;28;20120;-38
2023/03/13 01:16:42;;;;;;;24.38;6.20;;;8.30;99.90;;;;;;5047932;28;20506;-38
2023/03/13 01:19:10;;;;;;;29.13;6.90;;;8.20;99.90;;;;;;5047998;28;20083;-38
2023/03/13 01:21:36;;;;;;;21.20;6.15;;;8.30;99.90;;;;;;5048204;28;20027;-38
2023/03/13 01:24:02;;;;;;;25.55;6.88;;;8.30;99.90;;;;;;5047817;28;20033;-38
2023/03/13 01:26:28;;;;;;;29.67;6.95;;;8.40;99.90;;;;;;5047403;28;20482;-38
2023/03/13 01:28:54;;;;;;;27.85;6.80;;;8.40;99.90;;;;;;5047845;28;20033;-38
2023/03/13 01:31:23;;;;;;;25.92;7.03;;;8.40;99.90;;;;;;5047650;28;20066;-38
2023/03/13 01:33:52;;;;;;;34.33;7.15;;;8.30;99.90;;;;;;5047380;28;20033;-38
2023/03/13 01:36:18;;;;;;;25.23;7.03;;;8.30;99.90;;;;;;5047505;28;20115;-38
2023/03/13 01:38:47;;;;;;;26.15;6.03;;;8.30;99.90;;;;;;5047764;28;20012;-38
2023/03/13 01:41:13;;;;;;;23.45;6.15;;;8.30;99.90;;;;;;5045471;28;20104;-38
2023/03/13 01:43:39;;;;;;;27.88;6.43;;;8.40;99.90;;;;;;5047450;28;20096;-38
2023/03/13 01:46:16;;;;;;;24.20;6.03;;;8.40;99.90;;;;;;5047121;28;20402;-38
2023/03/13 01:48:54;;;;;;;30.38;5.80;;;8.40;99.90;;;;;;5047563;28;20020;-38
2023/03/13 01:51:30;;;;;;;33.65;5.90;;;8.40;99.90;;;;;;5043548;28;20032;-38
2023/03/13 01:54:08;;;;;;;29.08;6.47;;;8.40;99.90;;;;;;5045885;28;20013;-38
2023/03/13 01:56:41;;;;;;;20.25;5.57;;;8.40;99.90;;;;;;5044528;28;20021;-38
2023/03/13 01:59:09;;;;;;;30.08;7.28;;;8.40;99.90;;;;;;5051252;28;20107;-38
2023/03/13 02:01:35;;;;;;;28.40;6.70;;;8.40;99.90;;;;;;5051360;28;20597;-38
2023/03/13 02:04:02;;;;;;;28.20;6.75;;;8.40;99.90;;;;;;5051160;28;20077;-38
2023/03/13 02:06:30;;;;;;;33.58;7.53;;;8.40;99.90;;;;;;5049119;28;20048;-38
2023/03/13 02:09:10;;;;;;;25.02;6.63;;;8.50;99.90;;;;;;5051208;28;20424;-38
2023/03/13 02:11:51;;;;;;;24.75;6.65;;;8.50;99.90;;;;;;5050376;28;20501;-38
2023/03/13 02:14:20;;;;;;;21.15;5.75;;;8.60;99.90;;;;;;5049448;28;20491;-38
2023/03/13 02:16:47;;;;;;;27.05;6.82;;;8.60;99.90;;;;;;5050906;28;20048;-38
2023/03/13 02:19:23;;;;;;;39.03;7.47;;;8.60;99.90;;;;;;5049480;28;20025;-38
2023/03/13 02:22:00;;;;;;;26.90;6.10;;;8.60;99.90;;;;;;5049941;28;20546;-38
2023/03/13 02:24:35;;;;;;;26.90;6.20;;;8.70;99.90;;;;;;5048320;28;20025;-38
2023/03/13 02:27:01;;;;;;;26.27;6.63;;;8.70;99.90;;;;;;5048598;28;20022;-39
2023/03/13 02:29:27;;;;;;;27.95;6.07;;;8.70;99.90;;;;;;5051243;28;20573;-38
2023/03/13 02:31:53;;;;;;;25.85;6.53;;;8.70;99.90;;;;;;5051147;28;20221;-39
2023/03/13 02:34:24;;;;;;;30.75;7.20;;;8.70;99.90;;;;;;5050749;28;20479;-38
2023/03/13 02:36:50;;;;;;;22.60;6.07;;;8.70;99.90;;;;;;5041895;28;20060;-38
2023/03/13 02:39:19;;;;;;;28.92;7.18;;;8.60;99.90;;;;;;5050598;28;20021;-38
2023/03/13 02:41:45;;;;;;;30.73;6.72;;;8.70;99.90;;;;;;5050319;28;20070;-39
2023/03/13 02:44:11;;;;;;;29.05;6.82;;;8.70;99.90;;;;;;5047401;28;20021;-38
2023/03/13 02:46:49;;;;;;;19.77;5.65;;;8.70;99.90;;;;;;5050272;28;20033;-38
2023/03/13 02:49:29;;;;;;;33.60;6.10;;;8.70;99.90;;;;;;5045521;28;20021;-38
2023/03/13 02:51:59;;;;;;;19.88;6.20;;;8.70;99.90;;;;;;5046413;28;20100;-38
2023/03/13 02:54:33;;;;;;;18.80;5.10;;;8.70;99.90;;;;;;5050308;28;20097;-38
2023/03/13 02:57:02;;;;;;;30.15;7.32;;;8.70;99.90;;;;;;5043454;28;20033;-38
2023/03/13 02:59:28;;;;;;;25.33;5.32;;;8.70;99.90;;;;;;5048866;28;20120;-38
2023/03/13 03:01:53;;;;;;;28.30;6.25;;;8.60;99.90;;;;;;5050636;28;20092;-38
2023/03/13 03:04:24;;;;;;;20.65;6.40;;;8.50;99.90;;;;;;5049857;28;20043;-38
2023/03/13 03:06:50;;;;;;;25.73;5.53;;;8.50;99.90;;;;;;5049885;28;20074;-39
2023/03/13 03:09:17;;;;;;;34.20;8.43;;;8.40;99.90;;;;;;5049435;28;20463;-38
2023/03/13 03:11:43;;;;;;;38.80;7.50;;;8.40;99.90;;;;;;5050066;28;20470;-38
2023/03/13 03:14:10;;;;;;;30.17;6.40;;;8.30;99.90;;;;;;5049887;28;20025;-38
2023/03/13 03:16:36;;;;;;;34.63;6.35;;;8.20;99.90;;;;;;5049822;28;20021;-38
2023/03/13 03:19:02;;;;;;;32.17;6.53;;;8.20;99.90;;;;;;5049983;28;20099;-38
2023/03/13 03:21:28;;;;;;;32.40;6.00;;;8.20;99.90;;;;;;5050094;28;20036;-38
2023/03/13 03:23:53;;;;;;;26.35;6.47;;;8.20;99.90;;;;;;5049867;28;20021;-38
2023/03/13 03:26:19;;;;;;;27.30;5.47;;;8.10;99.90;;;;;;5050060;28;20017;-38
2023/03/13 04:25:59;;;;;;;30.30;7.05;;;7.60;99.90;;;;;;5034759;28;20116;-38
2023/03/13 04:28:25;;;;;;;32.47;6.35;;;7.60;99.90;;;;;;5041926;28;20096;-39
2023/03/13 04:30:51;;;;;;;33.38;8.27;;;7.60;99.90;;;;;;5047102;28;20286;-38
2023/03/13 04:33:17;;;;;;;44.95;7.43;;;7.60;99.90;;;;;;5047465;28;20013;-38
2023/03/13 04:35:43;;;;;;;37.17;7.82;;;7.60;99.90;;;;;;5046677;28;20152;-38
2023/03/13 04:38:08;;;;;;;40.10;7.20;;;7.60;99.90;;;;;;5047329;28;20025;-38
2023/03/13 04:40:34;;;;;;;47.13;8.70;;;7.60;99.90;;;;;;5047368;28;20070;-38
2023/03/13 04:42:59;;;;;;;39.13;7.53;;;7.60;99.90;;;;;;5047312;28;20025;-45
2023/03/13 04:45:25;;;;;;;57.42;8.63;;;7.60;99.90;;;;;;5046489;28;20071;-46
2023/03/13 04:47:50;;;;;;;32.05;7.75;;;7.70;99.90;;;;;;5047125;28;20120;-46
2023/03/13 04:50:16;;;;;;;38.72;7.45;;;7.70;99.90;;;;;;5046989;28;20032;-38
2023/03/13 04:52:41;;;;;;;47.95;8.18;;;7.70;99.90;;;;;;5045702;28;20103;-48
2023/03/13 04:55:07;;;;;;;42.00;8.68;;;7.70;99.90;;;;;;5046681;28;20028;-45
2023/03/13 04:57:33;;;;;;;50.30;9.65;;;7.60;99.90;;;;;;5047467;28;20128;-48
2023/03/13 04:59:58;;;;;;;40.45;9.02;;;7.60;99.90;;;;;;5048198;28;20025;-46
2023/03/13 05:02:25;;;;;;;52.88;8.15;;;7.60;99.90;;;;;;5048571;28;20032;-46
2023/03/13 05:04:50;;;;;;;50.35;9.52;;;7.60;99.90;;;;;;5048907;28;20039;-45
2023/03/13 05:07:16;;;;;;;43.83;7.95;;;7.60;99.90;;;;;;5048856;28;20029;-46
2023/03/13 05:09:41;;;;;;;49.42;8.38;;;7.60;99.90;;;;;;5048636;28;20028;-48
2023/03/13 05:12:07;;;;;;;51.03;9.23;;;7.50;99.90;;;;;;5048902;28;20040;-46
2023/03/13 05:14:32;;;;;;;49.63;8.27;;;7.50;99.90;;;;;;5049007;28;20033;-46
2023/03/13 05:16:58;;;;;;;47.95;8.80;;;7.50;99.90;;;;;;5048991;28;20044;-46
2023/03/13 05:19:24;;;;;;;46.47;9.75;;;7.40;99.90;;;;;;5048849;28;20067;-47
2023/03/13 05:21:49;;;;;;;59.60;10.35;;;7.40;99.90;;;;;;5049072;28;20103;-46
2023/03/13 05:24:15;;;;;;;49.42;8.50;;;7.40;99.90;;;;;;5048634;28;20083;-46
2023/03/13 05:26:40;;;;;;;47.65;10.63;;;7.40;99.90;;;;;;5048575;28;20029;-45
2023/03/13 05:29:06;;;;;;;47.60;9.73;;;7.30;99.90;;;;;;5048728;28;20021;-47
2023/03/13 05:31:31;;;;;;;59.85;10.48;;;7.30;99.90;;;;;;5050843;28;20056;-47
2023/03/13 05:33:57;;;;;;;46.67;9.05;;;7.40;99.90;;;;;;5050968;28;20383;-46
2023/03/13 05:36:22;;;;;;;47.92;9.43;;;7.40;99.90;;;;;;5052649;28;20037;-46
2023/03/13 05:38:48;;;;;;;51.15;10.18;;;7.40;99.90;;;;;;5052188;28;20032;-47
2023/03/13 05:41:13;;;;;;;71.22;10.13;;;7.40;99.90;;;;;;5052532;28;20029;-45
2023/03/13 05:43:39;;;;;;;58.30;10.68;;;7.30;99.90;;;;;;5051821;28;20506;-46
2023/03/13 05:46:04;;;;;;;39.83;8.63;;;7.30;99.90;;;;;;5051583;28;20032;-46
2023/03/13 05:48:30;;;;;;;65.82;11.45;;;7.30;99.90;;;;;;5051304;28;20055;-48
2023/03/13 05:50:55;;;;;;;49.60;9.63;;;7.30;99.90;;;;;;5050385;28;20025;-46
2023/03/13 05:53:21;;;;;;;58.03;13.00;;;7.40;99.90;;;;;;5051451;28;20053;-45
2023/03/13 05:55:46;;;;;;;71.20;13.15;;;7.40;99.90;;;;;;5052294;28;20040;-46
2023/03/13 05:58:12;;;;;;;58.17;12.45;;;7.40;99.90;;;;;;5051145;28;20029;-48
2023/03/13 06:00:38;;;;;;;61.80;11.38;;;7.40;99.90;;;;;;5052394;28;20029;-47
2023/03/13 06:03:03;;;;;;;59.80;13.20;;;7.40;99.90;;;;;;5051950;28;20634;-45
2023/03/13 06:05:29;;;;;;;65.43;11.68;;;7.40;99.90;;;;;;5051446;28;20055;-48
2023/03/13 06:07:54;;;;;;;66.90;12.98;;;7.40;99.90;;;;;;5051610;28;20060;-45
2023/03/13 06:10:20;;;;;;;67.50;13.13;;;7.40;99.90;;;;;;5049924;28;20025;-46
2023/03/13 06:12:54;;;;;;;70.47;13.00;;;7.40;99.90;;;;;;5049673;28;20029;-46
2023/03/13 06:15:20;;;;;;;52.13;13.13;;;7.40;99.90;;;;;;5049069;28;20127;-45
2023/03/13 06:17:45;;;;;;;54.38;12.07;;;7.50;99.90;;;;;;5050480;28;20108;-46
2023/03/13 06:20:11;;;;;;;75.03;13.55;;;7.50;99.90;;;;;;5051568;28;20056;-45
2023/03/13 06:22:36;;;;;;;61.67;13.70;;;7.60;99.90;;;;;;5051926;28;20398;-46
2023/03/13 06:25:03;;;;;;;65.82;11.73;;;7.60;99.90;;;;;;5049297;28;20044;-46
2023/03/13 06:27:28;;;;;;;50.42;12.45;;;7.80;99.90;;;;;;5050452;28;20021;-45
2023/03/13 06:29:54;;;;;;;53.55;12.65;;;7.80;99.90;;;;;;5044419;28;20520;-46
2023/03/13 06:32:19;;;;;;;48.72;10.98;;;7.90;99.90;;;;;;5045666;28;20032;-47
2023/03/13 06:34:45;;;;;;;37.42;10.52;;;8.00;99.90;;;;;;5046741;28;20532;-48
2023/03/13 06:37:10;;;;;;;47.40;10.98;;;8.10;99.90;;;;;;5049138;28;20051;-45
2023/03/13 06:39:36;;;;;;;50.88;10.68;;;8.10;99.90;;;;;;5049400;28;20025;-45
2023/03/13 06:42:01;;;;;;;56.05;11.25;;;8.20;99.90;;;;;;5046509;28;20466;-46
2023/03/13 06:44:27;;;;;;;50.30;10.43;;;8.20;99.90;;;;;;5052868;28;20513;-47
2023/03/13 06:46:52;;;;;;;34.85;11.27;;;8.30;99.90;;;;;;5048211;28;20061;-47
2023/03/13 06:49:18;;;;;;;49.00;9.65;;;8.30;99.90;;;;;;5047714;28;20020;-47
2023/03/13 06:51:43;;;;;;;37.08;10.98;;;8.40;99.90;;;;;;5047867;28;20386;-45
2023/03/13 06:54:09;;;;;;;43.80;10.35;;;8.40;99.90;;;;;;5048155;28;20067;-45
2023/03/13 06:56:34;;;;;;;40.13;9.52;;;8.50;99.90;;;;;;5047414;28;20052;-44
2023/03/13 06:59:00;;;;;;;40.58;10.05;;;8.50;99.90;;;;;;5047554;28;20482;-45
2023/03/13 07:01:26;;;;;;;34.90;8.68;;;8.50;99.90;;;;;;5047747;28;20025;-45
2023/03/13 07:03:51;;;;;;;39.35;9.10;;;8.50;99.90;;;;;;5047556;28;20021;-45
2023/03/13 07:06:17;;;;;;;24.60;7.95;;;8.60;99.90;;;;;;5047482;28;20121;-46
2023/03/13 07:08:43;;;;;;;35.17;9.23;;;8.70;99.90;;;;;;5045158;28;20048;-44
2023/03/13 07:11:11;;;;;;;38.38;9.80;;;8.70;99.90;;;;;;5047999;28;20017;-45
2023/03/13 07:13:36;;;;;;;36.70;9.02;;;8.70;99.90;;;;;;5052871;28;20205;-45
2023/03/13 07:16:12;;;;;;;27.60;7.65;;;8.70;99.90;;;;;;5049751;28;20051;-45
2023/03/13 07:18:43;;;;;;;26.58;8.15;;;8.90;99.90;;;;;;5048028;28;20025;-45
2023/03/13 07:21:09;;;;;;;28.48;7.53;;;8.90;99.90;;;;;;5047893;28;20009;-45
2023/03/13 07:23:35;;;;;;;39.85;8.15;;;8.90;99.90;;;;;;5046784;28;20028;-45
2023/03/13 07:26:04;;;;;;;39.35;7.82;;;9.00;99.90;;;;;;5045145;28;20078;-45
2023/03/13 07:28:30;;;;;;;23.23;7.28;;;8.90;99.90;;;;;;5046678;28;20025;-40
2023/03/13 07:31:12;;;;;;;24.73;6.85;;;9.00;99.90;;;;;;5044941;28;20044;-39
2023/03/13 07:33:38;;;;;;;23.38;6.75;;;9.10;99.90;;;;;;5044941;28;20036;-39
2023/03/13 07:36:04;;;;;;;23.27;5.93;;;9.10;99.90;;;;;;5047035;28;20025;-39
2023/03/13 07:38:30;;;;;;;28.95;7.38;;;9.10;99.90;;;;;;5046915;28;20028;-39
2023/03/13 07:40:56;;;;;;;28.50;6.68;;;9.10;99.90;;;;;;5047282;28;20466;-39
2023/03/13 07:43:23;;;;;;;23.52;6.30;;;9.20;99.90;;;;;;5049322;28;20766;-39
2023/03/13 07:45:54;;;;;;;20.17;5.55;;;9.20;99.90;;;;;;5046839;28;20173;-38
2023/03/13 07:48:21;;;;;;;54.88;21.77;;;9.20;99.90;;;;;;5047305;28;20071;-38
2023/03/13 07:50:47;;;;;;;22.73;7.40;;;9.10;99.90;;;;;;5046955;28;20021;-47
2023/03/13 07:53:19;;;;;;;26.65;7.13;;;9.20;99.90;;;;;;5047217;28;20283;-45
2023/03/13 07:55:51;;;;;;;23.75;6.32;;;9.20;99.90;;;;;;5044051;28;20024;-45
2023/03/13 07:58:17;;;;;;;20.48;6.68;;;9.20;99.90;;;;;;5046686;28;20083;-48
2023/03/13 08:00:42;;;;;;;19.23;6.75;;;9.20;99.90;;;;;;5045593;28;20394;-46
2023/03/13 08:03:09;;;;;;;19.50;6.65;;;9.20;99.90;;;;;;5046817;28;20453;-46
2023/03/13 08:05:34;;;;;;;22.75;7.50;;;9.30;99.90;;;;;;5045838;28;20013;-45
2023/03/13 08:07:59;;;;;;;28.83;7.00;;;9.30;99.90;;;;;;5045098;28;20032;-45
2023/03/13 08:10:25;;;;;;;23.73;7.68;;;9.40;99.90;;;;;;5046612;28;20029;-45
2023/03/13 08:12:51;;;;;;;29.15;8.25;;;9.40;99.90;;;;;;5049100;28;20032;-45
2023/03/13 08:15:20;;;;;;;22.58;7.15;;;9.40;99.90;;;;;;5046833;28;20032;-47
2023/03/13 08:17:46;;;;;;;20.98;6.40;;;9.50;99.90;;;;;;5044297;28;20528;-46
2023/03/13 08:20:11;;;;;;;26.63;7.72;;;9.50;99.90;;;;;;5046285;28;20025;-46
2023/03/13 08:22:37;;;;;;;18.35;6.57;;;9.50;99.90;;;;;;5046268;28;20067;-47
2023/03/13 08:25:03;;;;;;;25.10;7.45;;;9.60;99.90;;;;;;5045935;28;20024;-46
2023/03/13 08:27:29;;;;;;;22.70;6.20;;;9.60;99.90;;;;;;5045750;28;20044;-44
2023/03/13 08:29:54;;;;;;;21.42;5.50;;;9.60;99.90;;;;;;5045848;28;20482;-45
2023/03/13 08:32:20;;;;;;;17.60;5.28;;;9.70;99.90;;;;;;5045146;28;20490;-46
2023/03/13 08:34:46;;;;;;;13.75;5.30;;;9.70;99.90;;;;;;5043888;28;20063;-45
2023/03/13 08:37:14;;;;;;;13.32;4.57;;;9.70;99.90;;;;;;5045372;28;20021;-45
2023/03/13 08:39:40;;;;;;;15.65;4.95;;;9.80;99.90;;;;;;5045765;28;20028;-45
2023/03/13 08:42:10;;;;;;;11.95;4.03;;;9.90;99.90;;;;;;5046657;28;20025;-45
2023/03/13 08:44:35;;;;;;;15.15;5.30;;;9.90;99.90;;;;;;5047006;28;20033;-44
2023/03/13 08:47:01;;;;;;;14.70;4.05;;;10.00;99.90;;;;;;5045765;28;20060;-45
2023/03/13 08:49:26;;;;;;;15.85;5.35;;;10.00;99.90;;;;;;5046169;28;20056;-46
2023/03/13 08:51:52;;;;;;;16.77;4.07;;;10.00;99.90;;;;;;5044483;28;20102;-47
2023/03/13 08:54:17;;;;;;;15.30;4.57;;;10.00;99.90;;;;;;5045402;28;20482;-46
2023/03/13 08:56:43;;;;;;;14.10;4.20;;;10.00;99.90;;;;;;5045299;28;20083;-49
2023/03/13 08:59:09;;;;;;;12.52;3.47;;;10.10;99.90;;;;;;5043462;28;20025;-45
2023/03/13 09:01:35;;;;;;;8.93;3.83;;;10.10;99.90;;;;;;5042920;28;20071;-46
2023/03/13 09:04:01;;;;;;;7.38;3.22;;;10.10;99.90;;;;;;5043682;28;20080;-45
2023/03/13 09:06:27;;;;;;;13.15;3.50;;;10.20;99.90;;;;;;5044824;28;20049;-45
2023/03/13 09:08:56;;;;;;;8.45;3.45;;;10.20;99.90;;;;;;5044269;28;20060;-45
2023/03/13 09:11:22;;;;;;;6.80;2.90;;;10.30;99.90;;;;;;5045716;28;20032;-45
2023/03/13 09:13:49;;;;;;;7.13;2.92;;;10.50;99.90;;;;;;5048553;28;20025;-46
2023/03/13 09:16:21;;;;;;;11.35;3.05;;;10.50;99.90;;;;;;5045550;28;20045;-45
2023/03/13 09:18:47;;;;;;;7.82;2.80;;;10.50;99.90;;;;;;5043263;28;20029;-45
2023/03/13 09:21:15;;;;;;;8.80;3.20;;;10.40;99.90;;;;;;5043197;28;20040;-45
2023/03/13 09:23:41;;;;;;;9.05;3.08;;;10.50;99.90;;;;;;5045351;28;20079;-44
2023/03/13 09:26:07;;;;;;;9.05;2.67;;;10.50;99.90;;;;;;5045212;28;20028;-45
2023/03/13 09:28:33;;;;;;;8.50;4.03;;;10.50;99.90;;;;;;5045654;28;20029;-38
2023/03/13 09:31:07;;;;;;;11.18;3.20;;;10.50;99.90;;;;;;5046196;28;21118;-38
2023/03/13 09:33:32;;;;;;;8.25;2.97;;;10.60;99.90;;;;;;5042212;28;20471;-37
2023/03/13 09:35:58;;;;;;;6.00;2.90;;;10.70;99.90;;;;;;5038971;28;20033;-37
2023/03/13 09:38:23;;;;;;;7.40;3.15;;;10.70;99.90;;;;;;5046261;28;20033;-38
2023/03/13 09:40:52;;;;;;;6.35;2.70;;;10.70;99.90;;;;;;5046086;28;20044;-38
2023/03/13 09:43:47;;;;;;;25.60;11.98;;;10.70;99.90;;;;;;5045685;28;20048;-37
2023/03/13 09:46:44;;;;;;;16.58;3.53;;;10.70;99.90;;;;;;5044562;28;20041;-37
2023/03/13 09:49:50;;;;;;;10.38;3.92;;;10.60;99.90;;;;;;5045539;28;20270;-38
2023/03/13 09:52:30;;;;;;;9.50;2.67;;;10.80;99.90;;;;;;5030625;28;20155;-37
2023/03/13 09:55:09;;;;;;;11.23;3.10;;;10.90;99.90;;;;;;5050144;28;20164;-38
2023/03/13 09:57:35;;;;;;;8.38;2.95;;;11.20;99.90;;;;;;5045005;28;20120;-38
2023/03/13 10:00:26;;;;;;;6.75;3.25;;;11.60;99.90;;;;;;5031766;28;20124;-37
2023/03/13 10:03:16;;;;;;;9.35;2.80;;;11.80;99.90;;;;;;5037344;28;20098;-38
2023/03/13 10:06:09;;;;;;;7.68;2.05;;;12.00;99.90;;;;;;5044669;28;20071;-38
2023/03/13 10:08:35;;;;;;;7.60;2.70;;;12.30;99.90;;;;;;5043934;28;20500;-38
2023/03/13 10:11:10;;;;;;;6.32;2.47;;;12.30;99.90;;;;;;5045908;28;20044;-37
2023/03/13 10:13:50;;;;;;;3.97;2.05;;;12.00;99.90;;;;;;5045055;28;20021;-38
2023/03/13 10:16:28;;;;;;;6.45;2.67;;;12.10;99.90;;;;;;5043778;28;20499;-38
2023/03/13 10:18:57;;;;;;;6.47;1.80;;;12.30;99.90;;;;;;5049133;28;20155;-38
2023/03/13 10:21:31;;;;;;;3.70;1.90;;;12.50;99.90;;;;;;5048922;28;20051;-38
2023/03/13 10:24:21;;;;;;;4.20;1.85;;;12.60;99.90;;;;;;5049125;28;20110;-37
2023/03/13 10:26:47;;;;;;;4.97;1.60;;;12.80;99.90;;;;;;5048481;28;20414;-38
2023/03/13 10:29:30;;;;;;;4.78;1.63;;;12.80;99.90;;;;;;5046573;28;20036;-38
2023/03/13 10:32:04;;;;;;;5.70;2.00;;;12.90;99.90;;;;;;5049571;28;20017;-38
2023/03/13 10:35:10;;;;;;;3.28;1.48;;;13.00;99.90;;;;;;5050196;28;20086;-38
2023/03/13 10:37:42;;;;;;;4.68;1.20;;;13.20;99.90;;;;;;4988360;28;20117;-38
2023/03/13 10:40:13;;;;;;;3.10;1.60;;;13.30;99.90;;;;;;4988068;28;20026;-38
2023/03/13 10:42:44;;;;;;;2.78;1.50;;;13.50;99.90;;;;;;5022505;28;20119;-38
2023/03/13 10:45:18;;;;;;;4.90;1.63;;;13.50;99.90;;;;;;5049560;28;20493;-38
2023/03/13 10:47:43;;;;;;;1.88;1.48;;;13.50;99.90;;;;;;5050366;28;20037;-38
2023/03/13 10:50:19;;;;;;;3.72;2.00;;;13.50;99.90;;;;;;5049791;28;20021;-38
2023/03/13 10:52:47;;;;;;;3.28;1.50;;;13.60;99.90;;;;;;5050293;28;20116;-38
2023/03/13 10:55:21;;;;;;;3.47;1.60;;;13.70;99.90;;;;;;5049378;28;20040;-38
2023/03/13 10:58:05;;;;;;;11.45;7.22;;;13.70;99.90;;;;;;5049662;28;20028;-38
2023/03/13 11:00:41;;;;;;;3.60;1.63;;;13.70;99.90;;;;;;5049710;28;20024;-38
2023/03/13 11:03:17;;;;;;;1.42;1.13;;;13.70;99.90;;;;;;5050040;28;20018;-38
2023/03/13 11:05:43;;;;;;;7.15;1.60;;;13.80;99.90;;;;;;5049277;28;20033;-38
2023/03/13 11:08:15;;;;;;;2.20;1.17;;;13.90;99.90;;;;;;5049744;28;20112;-38
2023/03/13 11:10:58;;;;;;;3.63;1.42;;;14.00;99.90;;;;;;5049644;28;20556;-38
2023/03/13 11:13:41;;;;;;;3.35;1.58;;;14.10;99.90;;;;;;5049412;28;20033;-38
2023/03/13 11:16:23;;;;;;;3.70;1.50;;;14.30;99.90;;;;;;5047838;28;20371;-38
2023/03/13 11:19:26;;;;;;;3.25;1.52;;;14.30;99.90;;;;;;5049356;28;20032;-38
2023/03/13 11:22:08;;;;;;;3.60;1.42;;;14.20;99.90;;;;;;5049083;28;20025;-38
2023/03/13 11:24:45;;;;;;;4.35;1.50;;;14.20;99.90;;;;;;5047800;28;20029;-38
2023/03/13 11:27:40;;;;;;;4.30;1.77;;;14.00;99.90;;;;;;5048580;28;20116;-38
2023/03/13 11:30:44;;;;;;;3.60;1.88;;;13.90;99.90;;;;;;5047514;28;20021;-38
2023/03/13 11:33:46;;;;;;;4.75;1.60;;;14.00;99.90;;;;;;5045132;28;20033;-39
2023/03/13 11:36:29;;;;;;;1.55;1.45;;;14.70;99.90;;;;;;5069344;28;20050;-39
2023/03/13 11:39:01;;;;;;;3.72;1.48;;;15.10;99.90;;;;;;5069164;28;20621;-39
2023/03/13 11:41:41;;;;;;;3.60;1.75;;;15.90;99.90;;;;;;5068751;28;20028;-39
2023/03/13 11:44:35;;;;;;;10.13;1.40;;;16.20;99.90;;;;;;5068707;28;20093;-39
2023/03/13 11:47:38;;;;;;;3.13;1.58;;;16.40;99.90;;;;;;5068527;28;20047;-39
2023/03/13 11:50:14;;;;;;;2.28;1.20;;;17.20;99.90;;;;;;5069071;28;20194;-39
2023/03/13 11:53:08;;;;;;;2.38;1.30;;;17.50;99.90;;;;;;5069122;28;20416;-39
2023/03/13 11:55:52;;;;;;;1.95;1.30;;;18.50;99.90;;;;;;5068370;28;20032;-39
2023/03/13 11:58:47;;;;;;;1.80;1.20;;;19.90;99.90;;;;;;5053550;28;20108;-39
2023/03/13 12:01:18;;;;;;;3.17;1.30;;;19.30;99.90;;;;;;5062042;28;20290;-39
2023/03/13 12:03:53;;;;;;;2.38;1.40;;;18.40;99.90;;;;;;5068348;28;20123;-39
2023/03/13 12:06:23;;;;;;;2.67;1.20;;;17.80;99.90;;;;;;5053349;28;20029;-39
2023/03/13 12:08:54;;;;;;;2.45;1.30;;;17.50;99.90;;;;;;5055984;28;20098;-39
2023/03/13 12:11:42;;;;;;;4.43;1.35;;;17.20;99.90;;;;;;5048207;28;20032;-39
2023/03/13 12:14:43;;;;;;;5.63;1.55;;;17.60;99.90;;;;;;5048649;28;20109;-39
2023/03/13 12:17:14;;;;;;;2.65;1.50;;;17.80;99.90;;;;;;5009677;28;20429;-39
2023/03/13 12:19:44;;;;;;;1.88;1.58;;;17.70;99.90;;;;;;5049165;28;20024;-39
2023/03/13 12:22:41;;;;;;;1.42;1.10;;;17.70;99.90;;;;;;5047934;28;20017;-39
2023/03/13 12:25:20;;;;;;;3.10;1.15;;;17.80;99.90;;;;;;5029281;28;20032;-38
2023/03/13 12:27:50;;;;;;;1.52;1.00;;;17.90;99.90;;;;;;5042996;28;20029;-39
2023/03/13 12:30:26;;;;;;;;;;;18.40;99.90;;;;;;5046108;28;20033;-39
2023/03/13 12:33:13;;;;;;;2.35;1.30;;;18.70;99.90;;;;;;5046080;28;19962;-39
2023/03/13 12:35:41;;;;;;;3.67;1.38;;;19.00;99.90;;;;;;5044677;28;20025;-37
2023/03/13 12:38:21;;;;;;;3.67;1.40;;;19.10;99.90;;;;;;5047637;28;20024;-37
2023/03/13 12:41:18;;;;;;;2.03;1.30;;;19.00;99.90;;;;;;5042715;28;20679;-37
2023/03/13 12:43:48;;;;;;;1.50;1.25;;;18.50;99.90;;;;;;5046037;28;20031;-37
2023/03/13 12:46:38;;;;;;;3.10;1.60;;;18.20;99.90;;;;;;5044629;28;20029;-37
2023/03/13 12:49:24;;;;;;;1.95;1.50;;;18.00;99.90;;;;;;5046799;28;20255;-37
2023/03/13 12:52:02;;;;;;;2.45;1.45;;;17.90;99.90;;;;;;5053679;28;20368;-37
2023/03/13 12:54:28;;;;;;;4.55;1.25;;;18.00;99.90;;;;;;5047279;28;20509;-39
2023/03/13 12:57:20;;;;;;;2.08;1.33;;;17.80;99.90;;;;;;5047074;28;20115;-39
2023/03/13 12:59:53;;;;;;;3.20;1.35;;;17.40;99.90;;;;;;5043656;28;20490;-38
2023/03/13 13:02:23;;;;;;;5.10;1.45;;;17.40;99.90;;;;;;5047335;28;20066;-39
2023/03/13 13:04:50;;;;;;;3.93;1.83;;;17.30;99.90;;;;;;5045328;28;20025;-39
2023/03/13 13:07:21;;;;;;;4.45;1.27;;;17.50;99.90;;;;;;5047032;28;20741;-39
2023/03/13 13:10:03;;;;;;;4.45;1.50;;;17.80;99.90;;;;;;5047152;28;20029;-39
2023/03/13 13:12:30;;;;;;;1.42;1.20;;;17.70;99.90;;;;;;5043503;28;20044;-39
2023/03/13 13:15:00;;;;;;;2.35;1.52;;;17.40;99.90;;;;;;5046988;28;20025;-39
2023/03/13 13:17:48;;;;;;;1.65;1.20;;;17.30;99.90;;;;;;5049126;28;20028;-39
2023/03/13 13:20:30;;;;;;;2.75;1.58;;;17.10;99.90;;;;;;5051841;28;20025;-39
2023/03/13 13:23:16;;;;;;;2.03;1.30;;;17.10;99.90;;;;;;5047352;28;20021;-39
2023/03/13 13:25:42;;;;;;;3.33;2.17;;;17.30;99.90;;;;;;5047126;28;20115;-39
2023/03/13 13:28:22;;;;;;;7.72;1.60;;;17.60;99.90;;;;;;5046050;28;20100;-39
2023/03/13 13:30:53;;;;;;;1.60;1.27;;;17.70;99.90;;;;;;5047121;28;20025;-39
2023/03/13 13:33:27;;;;;;;;;;;18.00;99.90;;;;;;5047206;28;20025;-39
2023/03/13 13:36:07;;;;;;;2.83;1.40;;;18.20;99.90;;;;;;5044648;28;19912;-39
2023/03/13 13:38:39;;;;;;;1.75;1.17;;;18.40;99.90;;;;;;5047351;28;20036;-39
2023/03/13 13:41:07;;;;;;;3.35;1.50;;;18.50;99.90;;;;;;5047275;28;20498;-39
2023/03/13 13:43:40;;;;;;;2.15;1.30;;;18.70;99.90;;;;;;5045760;28;20478;-39
2023/03/13 13:46:28;;;;;;;1.20;1.10;;;18.60;99.90;;;;;;5047103;28;20029;-39
2023/03/13 13:49:06;;;;;;;2.45;1.20;;;18.70;99.80;;;;;;5045087;28;20021;-39
2023/03/13 13:52:15;;;;;;;3.42;1.30;;;18.60;99.10;;;;;;5046836;28;20048;-39
2023/03/13 13:54:41;;;;;;;1.75;1.40;;;18.30;99.10;;;;;;5011051;28;20648;-38
2023/03/13 13:57:07;;;;;;;1.60;1.00;;;18.10;99.40;;;;;;5031000;28;20029;-39
2023/03/13 13:59:40;;;;;;;3.13;1.90;;;17.70;99.50;;;;;;5048443;28;20402;-39
2023/03/13 14:02:06;;;;;;;15.70;1.30;;;17.70;99.90;;;;;;5049755;28;20029;-39